sensor_id;sensor_type;location;lat;lon;timestamp;pressure;altitude;pressure_sealevel;temperature;humidity
54918;BME280;40818;50.562;7.454;2023-09-18T00:05:42;96974.47;;;19.00;100.00
54918;BME280;40818;50.562;7.454;2023-09-18T00:15:48;96963.03;;;18.93;100.00
54918;BME280;40818;50.562;7.454;2023-09-18T00:25:52;96935.09;;;18.84;100.00
54918;BME280;40818;50.562;7.454;2023-09-18T00:35:58;96931.16;;;18.80;100.00
54918;BME280;40818;50.562;7.454;2023-09-18T00:46:01;96926.59;;;18.73;100.00
54918;BME280;40818;50.562;7.454;2023-09-18T00:56:10;96911.84;;;18.64;100.00
54918;BME280;40818;50.562;7.454;2023-09-18T01:06:15;96906.66;;;18.48;100.00
54918;BME280;40818;50.562;7.454;2023-09-18T01:16:25;96915.56;;;18.38;100.00
54918;BME280;40818;50.562;7.454;2023-09-18T01:26:33;96913.41;;;18.42;100.00
54918;BME280;40818;50.562;7.454;2023-09-18T01:36:36;96900.03;;;18.60;100.00
54918;BME280;40818;50.562;7.454;2023-09-18T01:46:43;96909.81;;;18.74;100.00
54918;BME280;40818;50.562;7.454;2023-09-18T01:56:47;96958.75;;;19.23;100.00
54918;BME280;40818;50.562;7.454;2023-09-18T02:06:53;96958.16;;;19.36;100.00
54918;BME280;40818;50.562;7.454;2023-09-18T02:16:57;96945.09;;;18.88;100.00
54918;BME280;40818;50.562;7.454;2023-09-18T02:27:06;96875.53;;;18.28;100.00
54918;BME280;40818;50.562;7.454;2023-09-18T02:37:11;96814.25;;;17.96;100.00
54918;BME280;40818;50.562;7.454;2023-09-18T02:47:17;96795.00;;;17.48;100.00
54918;BME280;40818;50.562;7.454;2023-09-18T02:57:20;96813.47;;;17.71;100.00
54918;BME280;40818;50.562;7.454;2023-09-18T03:07:26;96826.75;;;17.78;100.00
54918;BME280;40818;50.562;7.454;2023-09-18T03:17:31;96836.91;;;17.81;100.00
54918;BME280;40818;50.562;7.454;2023-09-18T03:27:37;96851.53;;;17.75;100.00
54918;BME280;40818;50.562;7.454;2023-09-18T03:37:41;96831.41;;;17.51;100.00
54918;BME280;40818;50.562;7.454;2023-09-18T03:47:48;96814.72;;;17.19;100.00
54918;BME280;40818;50.562;7.454;2023-09-18T03:57:52;96810.59;;;17.08;100.00
54918;BME280;40818;50.562;7.454;2023-09-18T04:07:59;96806.00;;;17.18;100.00
54918;BME280;40818;50.562;7.454;2023-09-18T04:18:03;96783.72;;;17.14;100.00
54918;BME280;40818;50.562;7.454;2023-09-18T04:28:09;96791.09;;;17.19;100.00
54918;BME280;40818;50.562;7.454;2023-09-18T04:38:13;96760.59;;;17.26;100.00
54918;BME280;40818;50.562;7.454;2023-09-18T04:48:22;96742.06;;;17.28;100.00
54918;BME280;40818;50.562;7.454;2023-09-18T04:58:26;96768.31;;;17.28;100.00
54918;BME280;40818;50.562;7.454;2023-09-18T05:08:32;96747.78;;;17.31;100.00
54918;BME280;40818;50.562;7.454;2023-09-18T05:18:36;96781.75;;;17.25;100.00
54918;BME280;40818;50.562;7.454;2023-09-18T05:28:43;96805.19;;;17.18;100.00
54918;BME280;40818;50.562;7.454;2023-09-18T05:38:48;96796.19;;;17.12;100.00
54918;BME280;40818;50.562;7.454;2023-09-18T05:48:54;96795.34;;;17.12;100.00
54918;BME280;40818;50.562;7.454;2023-09-18T05:58:58;96827.31;;;17.15;100.00
54918;BME280;40818;50.562;7.454;2023-09-18T06:09:05;96821.28;;;17.23;100.00
54918;BME280;40818;50.562;7.454;2023-09-18T06:19:08;96831.25;;;17.28;100.00
54918;BME280;40818;50.562;7.454;2023-09-18T06:29:14;96811.91;;;17.29;100.00
54918;BME280;40818;50.562;7.454;2023-09-18T06:39:17;96835.81;;;17.34;100.00
54918;BME280;40818;50.562;7.454;2023-09-18T06:49:25;96844.66;;;17.41;100.00
54918;BME280;40818;50.562;7.454;2023-09-18T06:59:29;96862.22;;;17.40;100.00
54918;BME280;40818;50.562;7.454;2023-09-18T07:09:37;96872.09;;;17.47;100.00
54918;BME280;40818;50.562;7.454;2023-09-18T07:19:40;96874.19;;;17.51;100.00
54918;BME280;40818;50.562;7.454;2023-09-18T07:29:46;96881.09;;;17.52;100.00
54918;BME280;40818;50.562;7.454;2023-09-18T07:39:50;96905.19;;;17.56;100.00
54918;BME280;40818;50.562;7.454;2023-09-18T07:49:57;96919.13;;;17.40;100.00
54918;BME280;40818;50.562;7.454;2023-09-18T08:00:00;96930.59;;;17.47;100.00
54918;BME280;40818;50.562;7.454;2023-09-18T08:10:15;96957.97;;;17.45;100.00
54918;BME280;40818;50.562;7.454;2023-09-18T08:20:18;96931.25;;;17.41;100.00
54918;BME280;40818;50.562;7.454;2023-09-18T08:30:25;96946.19;;;17.49;100.00
54918;BME280;40818;50.562;7.454;2023-09-18T08:40:28;96963.25;;;17.61;100.00
54918;BME280;40818;50.562;7.454;2023-09-18T08:50:34;96949.78;;;17.64;100.00
54918;BME280;40818;50.562;7.454;2023-09-18T09:00:39;96960.28;;;17.72;100.00
54918;BME280;40818;50.562;7.454;2023-09-18T09:10:45;96957.19;;;17.94;100.00
54918;BME280;40818;50.562;7.454;2023-09-18T09:20:56;96976.88;;;18.06;100.00
54918;BME280;40818;50.562;7.454;2023-09-18T09:31:03;96965.03;;;18.18;100.00
54918;BME280;40818;50.562;7.454;2023-09-18T09:41:07;96969.94;;;18.30;100.00
54918;BME280;40818;50.562;7.454;2023-09-18T09:51:17;96967.78;;;18.41;100.00
54918;BME280;40818;50.562;7.454;2023-09-18T10:01:22;96976.81;;;18.39;100.00
54918;BME280;40818;50.562;7.454;2023-09-18T10:11:31;96976.31;;;18.43;100.00
54918;BME280;40818;50.562;7.454;2023-09-18T10:21:41;97000.59;;;18.54;100.00
54918;BME280;40818;50.562;7.454;2023-09-18T10:31:53;96990.47;;;18.82;100.00
54918;BME280;40818;50.562;7.454;2023-09-18T10:42:01;96995.56;;;19.23;100.00
54918;BME280;40818;50.562;7.454;2023-09-18T10:52:13;96979.28;;;19.51;100.00
54918;BME280;40818;50.562;7.454;2023-09-18T11:02:19;96984.69;;;19.81;100.00
54918;BME280;40818;50.562;7.454;2023-09-18T11:12:43;96979.09;;;19.99;100.00
54918;BME280;40818;50.562;7.454;2023-09-18T11:22:48;96985.38;;;20.13;100.00
54918;BME280;40818;50.562;7.454;2023-09-18T11:32:55;96973.78;;;20.22;100.00
54918;BME280;40818;50.562;7.454;2023-09-18T11:43:20;96975.00;;;20.79;100.00
54918;BME280;40818;50.562;7.454;2023-09-18T11:53:29;96972.50;;;22.44;100.00
54918;BME280;40818;50.562;7.454;2023-09-18T12:03:37;96950.16;;;24.04;89.21
54918;BME280;40818;50.562;7.454;2023-09-18T12:13:43;96936.84;;;24.37;83.02
54918;BME280;40818;50.562;7.454;2023-09-18T12:23:46;96931.31;;;24.39;84.10
54918;BME280;40818;50.562;7.454;2023-09-18T12:33:53;96940.28;;;24.65;84.32
54918;BME280;40818;50.562;7.454;2023-09-18T12:43:57;96918.19;;;25.48;77.13
54918;BME280;40818;50.562;7.454;2023-09-18T12:54:03;96922.84;;;26.29;71.48
54918;BME280;40818;50.562;7.454;2023-09-18T13:04:11;96917.81;;;27.67;65.84
54918;BME280;40818;50.562;7.454;2023-09-18T13:14:17;96908.25;;;27.36;61.48
54918;BME280;40818;50.562;7.454;2023-09-18T13:24:25;96902.41;;;27.81;61.05
54918;BME280;40818;50.562;7.454;2023-09-18T13:34:32;96900.44;;;27.76;55.87
54918;BME280;40818;50.562;7.454;2023-09-18T13:44:35;96896.72;;;27.23;55.40
54918;BME280;40818;50.562;7.454;2023-09-18T13:54:41;96899.56;;;26.24;54.09
54918;BME280;40818;50.562;7.454;2023-09-18T14:04:51;96893.47;;;25.48;58.07
54918;BME280;40818;50.562;7.454;2023-09-18T14:14:57;96881.38;;;24.88;57.19
54918;BME280;40818;50.562;7.454;2023-09-18T14:25:01;96860.34;;;24.34;57.16
54918;BME280;40818;50.562;7.454;2023-09-18T14:35:09;96864.94;;;23.94;56.02
54918;BME280;40818;50.562;7.454;2023-09-18T14:45:15;96851.09;;;23.65;57.07
54918;BME280;40818;50.562;7.454;2023-09-18T14:55:20;96847.00;;;23.62;59.67
54918;BME280;40818;50.562;7.454;2023-09-18T15:05:24;96851.47;;;23.62;61.12
54918;BME280;40818;50.562;7.454;2023-09-18T15:15:30;96844.19;;;23.37;59.91
54918;BME280;40818;50.562;7.454;2023-09-18T15:25:34;96837.63;;;23.13;59.93
54918;BME280;40818;50.562;7.454;2023-09-18T15:35:41;96842.34;;;22.56;60.71
54918;BME280;40818;50.562;7.454;2023-09-18T15:45:44;96819.00;;;22.17;63.02
54918;BME280;40818;50.562;7.454;2023-09-18T15:55:50;96816.75;;;21.79;64.43
54918;BME280;40818;50.562;7.454;2023-09-18T16:05:54;96811.28;;;21.53;64.73
54918;BME280;40818;50.562;7.454;2023-09-18T16:16:00;96799.47;;;21.48;64.90
54918;BME280;40818;50.562;7.454;2023-09-18T16:26:04;96817.66;;;21.37;65.09
54918;BME280;40818;50.562;7.454;2023-09-18T16:36:10;96823.88;;;21.29;65.05
54918;BME280;40818;50.562;7.454;2023-09-18T16:46:14;96817.59;;;21.30;66.09
54918;BME280;40818;50.562;7.454;2023-09-18T16:56:20;96819.31;;;21.16;66.78
54918;BME280;40818;50.562;7.454;2023-09-18T17:06:25;96816.53;;;21.03;67.79
54918;BME280;40818;50.562;7.454;2023-09-18T17:16:37;96825.66;;;20.78;69.19
54918;BME280;40818;50.562;7.454;2023-09-18T17:26:41;96817.34;;;20.60;70.42
54918;BME280;40818;50.562;7.454;2023-09-18T17:36:47;96799.81;;;20.37;72.00
54918;BME280;40818;50.562;7.454;2023-09-18T17:46:50;96797.41;;;20.21;73.21
54918;BME280;40818;50.562;7.454;2023-09-18T17:56:56;96805.88;;;20.01;74.92
54918;BME280;40818;50.562;7.454;2023-09-18T18:07:00;96818.41;;;19.84;75.97
54918;BME280;40818;50.562;7.454;2023-09-18T18:17:06;96823.63;;;19.69;77.45
54918;BME280;40818;50.562;7.454;2023-09-18T18:27:10;96819.28;;;19.61;78.45
54918;BME280;40818;50.562;7.454;2023-09-18T18:37:16;96828.91;;;19.54;78.98
54918;BME280;40818;50.562;7.454;2023-09-18T18:47:19;96883.06;;;19.49;80.32
54918;BME280;40818;50.562;7.454;2023-09-18T18:57:25;96897.22;;;19.48;82.45
54918;BME280;40818;50.562;7.454;2023-09-18T19:07:29;97005.97;;;19.17;93.28
54918;BME280;40818;50.562;7.454;2023-09-18T19:17:36;96923.88;;;17.86;91.12
54918;BME280;40818;50.562;7.454;2023-09-18T19:27:39;96932.72;;;17.19;93.96
54918;BME280;40818;50.562;7.454;2023-09-18T19:37:45;96962.69;;;16.73;97.42
54918;BME280;40818;50.562;7.454;2023-09-18T19:47:49;96990.91;;;16.45;99.32
54918;BME280;40818;50.562;7.454;2023-09-18T19:57:55;96992.16;;;16.07;100.00
54918;BME280;40818;50.562;7.454;2023-09-18T20:07:59;96994.69;;;15.26;100.00
54918;BME280;40818;50.562;7.454;2023-09-18T20:18:07;96987.97;;;15.24;100.00
54918;BME280;40818;50.562;7.454;2023-09-18T20:28:11;97001.75;;;15.44;100.00
54918;BME280;40818;50.562;7.454;2023-09-18T20:38:17;97010.31;;;15.54;100.00
54918;BME280;40818;50.562;7.454;2023-09-18T20:48:20;97008.91;;;15.42;100.00
54918;BME280;40818;50.562;7.454;2023-09-18T20:58:26;97015.84;;;15.51;100.00
54918;BME280;40818;50.562;7.454;2023-09-18T21:08:30;97031.16;;;15.46;100.00
54918;BME280;40818;50.562;7.454;2023-09-18T21:18:36;97036.94;;;15.49;100.00
54918;BME280;40818;50.562;7.454;2023-09-18T21:28:39;97055.31;;;15.40;100.00
54918;BME280;40818;50.562;7.454;2023-09-18T21:38:46;97049.31;;;15.29;100.00
54918;BME280;40818;50.562;7.454;2023-09-18T21:48:49;97049.19;;;15.03;100.00
54918;BME280;40818;50.562;7.454;2023-09-18T21:58:56;97056.97;;;15.13;100.00
54918;BME280;40818;50.562;7.454;2023-09-18T22:08:59;97085.00;;;15.21;100.00
54918;BME280;40818;50.562;7.454;2023-09-18T22:19:07;97076.72;;;15.25;100.00
54918;BME280;40818;50.562;7.454;2023-09-18T22:29:10;97083.97;;;15.31;100.00
54918;BME280;40818;50.562;7.454;2023-09-18T23:00:21;97089.00;;;15.43;100.00
54918;BME280;40818;50.562;7.454;2023-09-18T23:10:29;97115.75;;;15.36;100.00
54918;BME280;40818;50.562;7.454;2023-09-18T23:20:35;97128.94;;;15.35;100.00
54918;BME280;40818;50.562;7.454;2023-09-18T23:30:42;97123.09;;;15.23;100.00
54918;BME280;40818;50.562;7.454;2023-09-18T23:40:48;97134.97;;;15.17;100.00
54918;BME280;40818;50.562;7.454;2023-09-18T23:50:54;97131.97;;;15.02;100.00
